Florimax — CUMI8 — position and weather

sailwx.info

Track history (hours):
 
Tides and Currents Weather Stations Pressure Air Temp Water Temp Dewpoint Dewpoint Depression Visibility Wind Speed Wind Dir Waves Ship Positions

Florimax

Last reported at 2017-Nov-19 23:09 UTC. Time now 2017-Nov-22 07:29 UTC.
Position N 37°53' W 009°00'.

Length 24 m.

Type: Fishing. MMSI: 263412470.

Date/timePositionNaut miles runAvg speedWind from/ knotsBaromVisibWave heightAir tempDewpointWater temp
2017-Nov-19 23:09N 37°53' W 009°00'2 8.4
2017-Nov-19 22:54N 37°54' W 008°58'3 7.8
2017-Nov-19 22:30N 37°55' W 008°55'3 5.2
2017-Nov-19 22:00N 37°57' W 008°52'0 0.0
2017-Nov-19 21:30N 37°57' W 008°52'0 0.0
2017-Nov-19 21:01N 37°57' W 008°52'0 0.0
2017-Nov-19 20:30N 37°57' W 008°52'0 0.0
2017-Nov-19 20:01N 37°57' W 008°52'0 0.0
2017-Nov-19 19:30N 37°57' W 008°52'0 0.0
2017-Nov-19 19:01N 37°57' W 008°52'0 0.2
2017-Nov-19 18:31N 37°57' W 008°52'4 8.1
2017-Nov-19 18:00N 37°55' W 008°56'4 8.2
2017-Nov-19 17:30N 37°54' W 009°01'4 8.3
2017-Nov-19 17:00N 37°52' W 009°06'2 4.6
2017-Nov-19 16:30N 37°51' W 009°09'1 2.1
2017-Nov-19 16:00N 37°50' W 009°09'1 2.9
2017-Nov-19 15:30N 37°49' W 009°08'1 2.9
2017-Nov-19 15:00N 37°48' W 009°08'1 2.9
2017-Nov-19 14:31N 37°46' W 009°08'1 2.8
2017-Nov-19 13:59N 37°45' W 009°08'2 3.6
2017-Nov-19 13:30N 37°43' W 009°09'3 1.6
2017-Nov-19 11:47N 37°46' W 009°08'3 2.9
2017-Nov-19 10:55N 37°48' W 009°08'1 2.8
2017-Nov-19 10:29N 37°49' W 009°08'1 3.0
2017-Nov-19 10:00N 37°51' W 009°09'1 1.3
2017-Nov-19 09:30N 37°50' W 009°08'1 2.9
2017-Nov-19 09:01N 37°49' W 009°08'2 3.2
2017-Nov-19 08:24N 37°47' W 009°08'0 1.1
2017-Nov-19 08:00N 37°47' W 009°07'2 3.0
2017-Nov-19 07:30N 37°48' W 009°08'1 2.9
2017-Nov-19 07:00N 37°50' W 009°08'2 3.4
2017-Nov-19 06:31N 37°51' W 009°09'1 1.1
2017-Nov-19 06:01N 37°52' W 009°10'1 2.6
2017-Nov-19 05:30N 37°52' W 009°11'0 0.3
2017-Nov-19 05:00N 37°52' W 009°11'0 0.2
2017-Nov-19 04:29N 37°52' W 009°11'0 0.2
2017-Nov-19 03:58N 37°52' W 009°11'0 0.1
2017-Nov-19 02:08N 37°52' W 009°11'0 0.1
2017-Nov-19 01:06N 37°52' W 009°11'0 0.1
2017-Nov-19 01:00N 37°52' W 009°11'1 2.5
2017-Nov-19 00:31N 37°53' W 009°12'1 1.9
2017-Nov-19 00:00N 37°54' W 009°13'1 2.1
2017-Nov-18 23:30N 37°55' W 009°13'1 2.2
2017-Nov-18 23:01N 37°56' W 009°13'1 1.2
2017-Nov-18 22:30N 37°56' W 009°13'0 0.4
2017-Nov-18 22:01N 37°56' W 009°14'1 2.3
2017-Nov-18 21:30N 37°55' W 009°14'1 2.9
2017-Nov-18 21:00N 37°54' W 009°14'1 2.9
2017-Nov-18 20:30N 37°52' W 009°14'2 3.0
2017-Nov-18 20:01N 37°51' W 009°14'2 3.0
2017-Nov-18 19:30N 37°49' W 009°14'2 3.9
2017-Nov-18 19:01N 37°48' W 009°15'6 6.1
2017-Nov-18 18:02N 37°51' W 009°09'0 1.5
2017-Nov-18 18:00N 37°51' W 009°09'1 1.5
2017-Nov-18 17:30N 37°50' W 009°09'1 2.9
2017-Nov-18 17:00N 37°49' W 009°08'2 2.8
2017-Nov-18 16:25N 37°47' W 009°08'1 1.7
2017-Nov-18 16:01N 37°47' W 009°07'1 2.8
2017-Nov-18 15:30N 37°48' W 009°08'1 2.7
2017-Nov-18 15:00N 37°49' W 009°08'1 2.9
2017-Nov-18 14:30N 37°51' W 009°09'1 1.7
2017-Nov-18 14:00N 37°52' W 009°09'1 2.5
2017-Nov-18 13:30N 37°50' W 009°09'1 2.7
2017-Nov-18 13:00N 37°49' W 009°08'2 2.9
2017-Nov-18 12:14N 37°47' W 009°08'1 3.1
2017-Nov-18 12:00N 37°46' W 009°07'2 2.9
2017-Nov-18 11:22N 37°48' W 009°08'1 2.9
2017-Nov-18 11:01N 37°49' W 009°08'1 2.9
2017-Nov-18 10:31N 37°50' W 009°08'2 3.0
2017-Nov-18 10:01N 37°52' W 009°09'1 1.5
2017-Nov-18 09:22N 37°51' W 009°09'1 2.9
2017-Nov-18 08:58N 37°50' W 009°08'1 0.7
2017-Nov-18 07:09N 37°49' W 009°08'0 2.7
2017-Nov-18 07:00N 37°49' W 009°08'2 3.1
2017-Nov-18 06:29N 37°50' W 009°09'3 5.8
2017-Nov-18 06:00N 37°48' W 009°10'4 1.5
2017-Nov-18 03:30N 37°48' W 009°15'3 2.9
2017-Nov-18 02:30N 37°51' W 009°14'1 2.0
2017-Nov-18 01:59N 37°52' W 009°13'2 2.3
2017-Nov-18 01:07N 37°50' W 009°14'1 3.2
2017-Nov-18 00:56N 37°49' W 009°14'1 3.1
2017-Nov-18 00:30N 37°48' W 009°14'2 3.0
2017-Nov-18 00:00N 37°47' W 009°14'4 3.3
2017-Nov-17 22:41N 37°42' W 009°12'1 1.9
2017-Nov-17 22:21N 37°43' W 009°13'0 0.8
2017-Nov-17 22:00N 37°43' W 009°13'2 3.1
2017-Nov-17 21:31N 37°45' W 009°13'2 3.1
2017-Nov-17 21:00N 37°46' W 009°14'1 3.0
2017-Nov-17 20:30N 37°48' W 009°14'2 3.1
2017-Nov-17 20:00N 37°49' W 009°14'1 3.0
2017-Nov-17 19:31N 37°51' W 009°14'2 3.9
2017-Nov-17 19:00N 37°53' W 009°13'2 4.5
2017-Nov-17 18:31N 37°52' W 009°10'1 2.2
2017-Nov-17 18:00N 37°52' W 009°09'1 2.7
2017-Nov-17 17:30N 37°50' W 009°09'1 2.9
2017-Nov-17 17:00N 37°49' W 009°08'1 0.7
2017-Nov-17 15:40N 37°48' W 009°08'0 2.8
2017-Nov-17 15:30N 37°49' W 009°08'1 2.8
2017-Nov-17 15:00N 37°50' W 009°08'1 2.8
2017-Nov-17 14:30N 37°51' W 009°09'1 1.5
2017-Nov-17 14:00N 37°52' W 009°09'1 2.8
2017-Nov-17 13:31N 37°51' W 009°09'1 2.9
2017-Nov-17 13:00N 37°49' W 009°08'2 3.0
2017-Nov-17 12:30N 37°48' W 009°08'1 2.7
2017-Nov-17 11:59N 37°46' W 009°07'2 3.0
2017-Nov-17 11:23N 37°48' W 009°08'1 3.0
2017-Nov-17 11:00N 37°49' W 009°08'2 3.2
2017-Nov-17 10:30N 37°51' W 009°09'1 1.4
2017-Nov-17 09:59N 37°51' W 009°09'1 2.7
2017-Nov-17 09:30N 37°50' W 009°08'1 2.9
2017-Nov-17 09:00N 37°49' W 009°08'1 0.5
2017-Nov-17 07:30N 37°48' W 009°08'2 2.9
2017-Nov-17 06:58N 37°50' W 009°08'2 3.6
2017-Nov-17 06:30N 37°51' W 009°09'2 4.7
2017-Nov-17 06:01N 37°52' W 009°06'4 7.2
2017-Nov-17 05:31N 37°53' W 009°02'4 7.2
2017-Nov-17 05:00N 37°55' W 008°57'4 7.3
2017-Nov-17 04:30N 37°56' W 008°53'1 2.8
2017-Nov-17 04:00N 37°57' W 008°52'0 0.0
2017-Nov-17 03:31N 37°57' W 008°52'0 0.0
2017-Nov-17 03:00N 37°57' W 008°52'0 0.0
2017-Nov-17 02:30N 37°57' W 008°52'0 0.0
2017-Nov-17 02:00N 37°57' W 008°52'0 0.0
2017-Nov-17 01:30N 37°57' W 008°52'0 0.0
2017-Nov-17 01:00N 37°57' W 008°52'0 0.0
2017-Nov-17 00:31N 37°57' W 008°52'0 0.0
2017-Nov-17 00:00N 37°57' W 008°52'0 0.0
2017-Nov-16 23:30N 37°57' W 008°52'0 0.0
2017-Nov-16 23:00N 37°57' W 008°52'0 0.0
2017-Nov-16 22:31N 37°57' W 008°52'0 0.0
2017-Nov-16 22:00N 37°57' W 008°52'0 0.0
2017-Nov-16 21:30N 37°57' W 008°52'0 0.0
2017-Nov-16 21:00N 37°57' W 008°52'0 0.0
2017-Nov-16 20:30N 37°57' W 008°52'0 0.0
2017-Nov-16 20:01N 37°57' W 008°52'0 0.0
2017-Nov-16 19:30N 37°57' W 008°52'3 7.0
2017-Nov-16 19:00N 37°55' W 008°55'4 8.4
2017-Nov-16 18:31N 37°53' W 009°00'4 8.5
2017-Nov-16 18:00N 37°51' W 009°05'3 6.1
2017-Nov-16 17:30N 37°49' W 009°08'1 1.8
2017-Nov-16 17:00N 37°48' W 009°08'1 2.8
2017-Nov-16 16:28N 37°47' W 009°08'1 3.1
2017-Nov-16 16:00N 37°45' W 009°08'1 1.0
2017-Nov-16 15:31N 37°45' W 009°07'2 3.0
2017-Nov-16 14:49N 37°47' W 009°07'1 2.9
2017-Nov-16 14:30N 37°48' W 009°08'1 2.0
2017-Nov-16 14:01N 37°49' W 009°08'0 0.1
2017-Nov-16 10:46N 37°49' W 009°08'0 1.5
2017-Nov-16 10:30N 37°49' W 009°08'1 1.2
2017-Nov-16 09:59N 37°49' W 009°08'0 0.1
2017-Nov-16 07:19N 37°48' W 009°08'1 2.9
2017-Nov-16 07:00N 37°49' W 009°08'1 1.6
2017-Nov-16 06:12N 37°51' W 009°08'1 2.7
2017-Nov-16 06:00N 37°51' W 009°08'2 3.0
2017-Nov-16 05:30N 37°52' W 009°09'1 3.0
2017-Nov-16 05:00N 37°54' W 009°09'0 0.7
2017-Nov-16 04:26N 37°54' W 009°10'0 0.9
2017-Nov-16 04:00N 37°54' W 009°10'0 0.8
2017-Nov-16 03:30N 37°53' W 009°11'0 0.6
2017-Nov-16 03:01N 37°53' W 009°11'0 0.5
2017-Nov-16 02:30N 37°53' W 009°11'0 0.5
2017-Nov-16 02:00N 37°53' W 009°11'0 0.4
2017-Nov-16 01:22N 37°52' W 009°11'0 0.3
2017-Nov-16 00:56N 37°52' W 009°11'0 0.2
2017-Nov-16 00:12N 37°52' W 009°11'0 0.2
2017-Nov-15 23:57N 37°52' W 009°11'1 1.9
2017-Nov-15 23:30N 37°52' W 009°12'3 2.2
2017-Nov-15 22:21N 37°50' W 009°14'2 3.0
2017-Nov-15 21:50N 37°48' W 009°15'1 3.0
2017-Nov-15 21:25N 37°47' W 009°15'6 1.7
2017-Nov-15 18:06N 37°49' W 009°08'0 1.2
2017-Nov-15 18:00N 37°49' W 009°08'0 0.1
2017-Nov-15 14:52N 37°49' W 009°08'1 2.9
2017-Nov-15 14:30N 37°50' W 009°08'1 1.3
2017-Nov-15 14:00N 37°50' W 009°08'1 2.9
2017-Nov-15 13:30N 37°48' W 009°08'2 2.9
2017-Nov-15 12:46N 37°46' W 009°08'1 0.7
2017-Nov-15 11:33N 37°47' W 009°07'1 3.0
2017-Nov-15 11:04N 37°48' W 009°08'0 3.0
2017-Nov-15 10:55N 37°49' W 009°08'5 5.9
2017-Nov-15 10:07N 37°52' W 009°03'1 8.8
2017-Nov-15 09:59N 37°52' W 009°02'4 8.8
2017-Nov-15 09:30N 37°54' W 008°57'4 9.0
2017-Nov-15 09:01N 37°57' W 008°53'1 1.1
2017-Nov-15 08:31N 37°57' W 008°52'0 0.0
2017-Nov-15 08:00N 37°57' W 008°52'0 0.0
2017-Nov-15 07:31N 37°57' W 008°52'0 0.0
2017-Nov-15 07:00N 37°57' W 008°52'0 0.0
2017-Nov-15 06:30N 37°57' W 008°52'2 4.2
2017-Nov-15 06:00N 37°56' W 008°54'4 7.8
2017-Nov-15 05:30N 37°55' W 008°59'4 7.8
2017-Nov-15 05:01N 37°55' W 009°04'4 8.2
2017-Nov-15 04:30N 37°54' W 009°09'3 6.7
2017-Nov-15 04:00N 37°54' W 009°13'5 2.8
2017-Nov-15 02:15N 37°49' W 009°15'1 2.3
2017-Nov-15 01:47N 37°48' W 009°15'3 2.7
2017-Nov-15 00:29N 37°51' W 009°15'1 3.0
2017-Nov-15 00:00N 37°53' W 009°14'1 3.0
2017-Nov-14 23:31N 37°54' W 009°14'2 3.0
2017-Nov-14 23:00N 37°56' W 009°14'1 1.4
2017-Nov-14 22:22N 37°56' W 009°14'1 2.6
2017-Nov-14 22:01N 37°56' W 009°14'2 3.2
2017-Nov-14 21:30N 37°54' W 009°14'2 3.1
2017-Nov-14 20:59N 37°52' W 009°14'13 3.4
2017-Nov-14 17:15N 37°53' W 008°58'2 8.8
2017-Nov-14 17:00N 37°55' W 008°56'4 7.6
2017-Nov-14 16:30N 37°57' W 008°52'0 0.1
2017-Nov-14 16:00N 37°57' W 008°52'0 0.0
2017-Nov-14 15:31N 37°57' W 008°52'0 0.0
2017-Nov-14 15:00N 37°57' W 008°52'0 0.0
2017-Nov-14 14:30N 37°57' W 008°52'0 0.0
2017-Nov-14 14:00N 37°57' W 008°52'3 6.0
2017-Nov-14 13:31N 37°55' W 008°55'4 7.4
2017-Nov-14 13:01N 37°54' W 008°60'4 7.2
2017-Nov-14 12:31N 37°52' W 009°04'4 7.3
2017-Nov-14 12:00N 37°51' W 009°08'1 1.6
2017-Nov-14 11:30N 37°50' W 009°08'1 2.9
2017-Nov-14 11:00N 37°49' W 009°08'0 0.1
2017-Nov-14 08:12N 37°49' W 009°08'1 3.0
2017-Nov-14 08:00N 37°49' W 009°08'1 3.0
2017-Nov-14 07:30N 37°51' W 009°08'1 3.0
2017-Nov-14 07:00N 37°52' W 009°09'2 3.1
2017-Nov-14 06:30N 37°54' W 009°09'1 1.8
2017-Nov-14 06:00N 37°53' W 009°10'1 2.6
2017-Nov-14 05:31N 37°52' W 009°10'1 2.5
2017-Nov-14 05:01N 37°51' W 009°11'0 0.5
2017-Nov-14 04:29N 37°51' W 009°11'0 0.5
2017-Nov-14 03:54N 37°51' W 009°11'1 0.5
2017-Nov-14 02:44N 37°51' W 009°12'1 2.6
2017-Nov-14 02:29N 37°50' W 009°13'2 3.3
2017-Nov-14 01:57N 37°49' W 009°14'1 1.0
2017-Nov-14 00:54N 37°50' W 009°15'1 3.1
2017-Nov-14 00:31N 37°51' W 009°15'2 3.0
2017-Nov-13 23:56N 37°52' W 009°14'1 3.1
2017-Nov-13 23:29N 37°54' W 009°14'2 3.7
2017-Nov-13 22:49N 37°56' W 009°14'1 0.7
2017-Nov-13 22:00N 37°56' W 009°14'5 0.2
2017-Nov-13 02:00N 38°00' W 009°12'2 4.0
2017-Nov-13 01:28N 38°01' W 009°09'3 7.5
2017-Nov-13 01:00N 37°60' W 009°05'4 7.6
2017-Nov-13 00:31N 37°59' W 009°01'4 7.4
2017-Nov-13 00:00N 37°57' W 008°57'3 6.7
2017-Nov-12 23:30N 37°57' W 008°52'0 0.9
2017-Nov-12 23:00N 37°57' W 008°52'0 0.0
2017-Nov-12 22:30N 37°57' W 008°52'0 0.0
2017-Nov-12 22:00N 37°57' W 008°52'0 0.0
2017-Nov-12 21:30N 37°57' W 008°52'0 0.0
2017-Nov-12 21:01N 37°57' W 008°52'0 0.0
2017-Nov-12 20:30N 37°57' W 008°52'0 0.0
2017-Nov-12 20:00N 37°57' W 008°52'0 0.0
2017-Nov-12 19:31N 37°57' W 008°52'0 0.0
2017-Nov-12 19:00N 37°57' W 008°52'3 5.5
2017-Nov-12 18:30N 37°55' W 008°55'4 8.1
2017-Nov-12 18:00N 37°53' W 008°59'4 8.2
2017-Nov-12 17:31N 37°51' W 009°03'4 7.6
2017-Nov-12 17:00N 37°49' W 009°08'0 1.0
2017-Nov-12 16:30N 37°48' W 009°08'3 0.8
2017-Nov-12 12:51N 37°48' W 009°11'1 3.9
2017-Nov-12 12:28N 37°49' W 009°11'0 0.9
2017-Nov-12 12:01N 37°50' W 009°11'1 2.4
2017-Nov-12 11:30N 37°49' W 009°12'1 0.1
2017-Nov-12 07:21N 37°48' W 009°11'1 3.2
2017-Nov-12 07:00N 37°50' W 009°11'1 1.1
2017-Nov-12 06:26N 37°50' W 009°11'1 1.8
2017-Nov-12 06:00N 37°50' W 009°12'0 0.8
2017-Nov-12 05:29N 37°50' W 009°12'3 1.8
2017-Nov-12 03:52N 37°53' W 009°14'1 3.1
2017-Nov-12 03:30N 37°54' W 009°14'2 3.1
2017-Nov-12 02:55N 37°56' W 009°14'1 3.0
2017-Nov-12 02:30N 37°57' W 009°14'2 3.6
2017-Nov-12 02:00N 37°59' W 009°13'1 1.1
2017-Nov-12 01:30N 37°58' W 009°14'2 3.0
2017-Nov-12 00:51N 37°56' W 009°14'1 3.0
2017-Nov-12 00:22N 37°55' W 009°14'1 2.9
2017-Nov-11 23:59N 37°54' W 009°14'1 2.8
2017-Nov-11 23:30N 37°53' W 009°14'1 1.1
2017-Nov-11 22:25N 37°51' W 009°14'1 3.1
2017-Nov-11 22:00N 37°53' W 009°14'5 3.1
2017-Nov-11 20:30N 37°57' W 009°14'1 3.1
2017-Nov-11 20:00N 37°59' W 009°13'1 2.9
2017-Nov-11 19:30N 38°00' W 009°12'1 2.3
2017-Nov-11 19:00N 37°60' W 009°11'4 7.7
2017-Nov-11 18:30N 37°56' W 009°10'4 7.8
2017-Nov-11 18:00N 37°52' W 009°09'1 1.1
2017-Nov-11 17:30N 37°52' W 009°09'1 2.6
2017-Nov-11 17:00N 37°51' W 009°09'1 2.7
2017-Nov-11 16:30N 37°50' W 009°10'1 2.5
2017-Nov-11 16:00N 37°48' W 009°11'1 2.7
2017-Nov-11 15:29N 37°47' W 009°11'3 2.7
2017-Nov-11 14:29N 37°44' W 009°11'2 3.5
2017-Nov-11 13:59N 37°43' W 009°11'4 2.9
2017-Nov-11 12:43N 37°46' W 009°11'1 3.0
2017-Nov-11 12:29N 37°47' W 009°11'1 3.0
2017-Nov-11 12:00N 37°48' W 009°12'1 1.6
2017-Nov-11 11:31N 37°49' W 009°12'1 1.3
2017-Nov-11 11:00N 37°48' W 009°12'1 2.9
2017-Nov-11 10:31N 37°47' W 009°12'4 2.7
2017-Nov-11 08:54N 37°43' W 009°10'1 2.8
2017-Nov-11 08:30N 37°44' W 009°10'4 2.9
2017-Nov-11 07:05N 37°48' W 009°11'0 2.6
2017-Nov-11 06:59N 37°48' W 009°11'1 1.8
2017-Nov-11 06:30N 37°49' W 009°12'3 6.0
2017-Nov-11 06:00N 37°46' W 009°14'1 1.6
2017-Nov-11 05:18N 37°47' W 009°14'1 3.0
2017-Nov-11 05:00N 37°48' W 009°14'2 3.1
2017-Nov-11 04:30N 37°49' W 009°14'2 3.2
2017-Nov-11 03:59N 37°51' W 009°14'2 3.2
2017-Nov-11 03:31N 37°53' W 009°14'2 3.0
2017-Nov-11 03:00N 37°54' W 009°14'1 1.2
2017-Nov-11 02:20N 37°53' W 009°14'0 0.2
2017-Nov-11 02:00N 37°53' W 009°14'2 3.1
2017-Nov-11 01:29N 37°55' W 009°14'2 3.1
2017-Nov-11 00:44N 37°57' W 009°13'1 3.2
2017-Nov-11 00:31N 37°58' W 009°13'2 3.2
2017-Nov-11 00:00N 37°60' W 009°12'2 3.2
2017-Nov-10 23:30N 38°01' W 009°12'2 3.2
2017-Nov-10 23:00N 38°02' W 009°10'2 3.2
2017-Nov-10 22:31N 38°04' W 009°10'1 1.0
2017-Nov-10 21:59N 38°03' W 009°10'1 3.0
2017-Nov-10 21:31N 38°02' W 009°11'2 3.0
2017-Nov-10 21:00N 38°01' W 009°12'2 3.0
2017-Nov-10 20:30N 37°60' W 009°13'1 3.0
2017-Nov-10 20:00N 37°58' W 009°13'2 3.0
2017-Nov-10 19:31N 37°57' W 009°14'2 3.2
2017-Nov-10 19:01N 37°55' W 009°14'3 6.0
2017-Nov-10 18:28N 37°52' W 009°12'2 5.0
2017-Nov-10 18:00N 37°51' W 009°09'1 1.4
2017-Nov-10 17:31N 37°51' W 009°09'1 2.8
2017-Nov-10 17:00N 37°49' W 009°08'1 2.6
2017-Nov-10 16:30N 37°48' W 009°08'2 2.7
2017-Nov-10 15:39N 37°46' W 009°09'0 2.8
2017-Nov-10 15:30N 37°45' W 009°09'3 1.5
2017-Nov-10 13:24N 37°47' W 009°12'1 2.9
2017-Nov-10 13:00N 37°48' W 009°12'1 2.0
2017-Nov-10 12:30N 37°49' W 009°12'0 0.7
2017-Nov-10 11:58N 37°49' W 009°12'1 1.6
2017-Nov-10 11:30N 37°48' W 009°12'2 2.8
2017-Nov-10 10:52N 37°47' W 009°11'3 0.9
2017-Nov-10 07:14N 37°49' W 009°08'1 2.7
2017-Nov-10 07:00N 37°49' W 009°08'1 1.9
2017-Nov-10 06:30N 37°50' W 009°08'3 5.1
2017-Nov-10 06:00N 37°51' W 009°05'3 6.4
2017-Nov-10 05:28N 37°52' W 009°01'3 7.3
2017-Nov-10 05:00N 37°54' W 008°58'4 7.6
2017-Nov-10 04:30N 37°56' W 008°54'2 3.1
2017-Nov-10 04:00N 37°57' W 008°52'0 0.0
2017-Nov-10 03:30N 37°57' W 008°52'0 0.0
2017-Nov-10 03:00N 37°57' W 008°52'0 0.0
2017-Nov-10 02:30N 37°57' W 008°52'0 0.0
2017-Nov-10 02:00N 37°57' W 008°52'0 0.0
2017-Nov-10 01:30N 37°57' W 008°52'0 0.0
2017-Nov-10 01:00N 37°57' W 008°52'0 0.0
2017-Nov-10 00:30N 37°57' W 008°52'0 0.0
2017-Nov-10 00:00N 37°57' W 008°52'0 0.0
2017-Nov-09 23:30N 37°57' W 008°52'  
Track history (hours):
 
Tides and Currents Weather Stations Pressure Air Temp Water Temp Dewpoint Dewpoint Depression Visibility Wind Speed Wind Dir Waves Ship Positions

Florimax

Last reported at 2017-Nov-19 23:09 UTC. Time now 2017-Nov-22 07:29 UTC.
Position N 37°53' W 009°00'.

Length 24 m.

Type: Fishing. MMSI: 263412470.

Date/timePositionNaut miles runAvg speedWind from/ knotsBaromVisibWave heightAir tempDewpointWater temp
2017-Nov-19 23:09N 37°53' W 009°00'2 8.4
2017-Nov-19 22:54N 37°54' W 008°58'3 7.8
2017-Nov-19 22:30N 37°55' W 008°55'3 5.2
2017-Nov-19 22:00N 37°57' W 008°52'0 0.0
2017-Nov-19 21:30N 37°57' W 008°52'0 0.0
2017-Nov-19 21:01N 37°57' W 008°52'0 0.0
2017-Nov-19 20:30N 37°57' W 008°52'0 0.0
2017-Nov-19 20:01N 37°57' W 008°52'0 0.0
2017-Nov-19 19:30N 37°57' W 008°52'0 0.0
2017-Nov-19 19:01N 37°57' W 008°52'0 0.2
2017-Nov-19 18:31N 37°57' W 008°52'4 8.1
2017-Nov-19 18:00N 37°55' W 008°56'4 8.2
2017-Nov-19 17:30N 37°54' W 009°01'4 8.3
2017-Nov-19 17:00N 37°52' W 009°06'2 4.6
2017-Nov-19 16:30N 37°51' W 009°09'1 2.1
2017-Nov-19 16:00N 37°50' W 009°09'1 2.9
2017-Nov-19 15:30N 37°49' W 009°08'1 2.9
2017-Nov-19 15:00N 37°48' W 009°08'1 2.9
2017-Nov-19 14:31N 37°46' W 009°08'1 2.8
2017-Nov-19 13:59N 37°45' W 009°08'2 3.6
2017-Nov-19 13:30N 37°43' W 009°09'3 1.6
2017-Nov-19 11:47N 37°46' W 009°08'3 2.9
2017-Nov-19 10:55N 37°48' W 009°08'1 2.8
2017-Nov-19 10:29N 37°49' W 009°08'1 3.0
2017-Nov-19 10:00N 37°51' W 009°09'1 1.3
2017-Nov-19 09:30N 37°50' W 009°08'1 2.9
2017-Nov-19 09:01N 37°49' W 009°08'2 3.2
2017-Nov-19 08:24N 37°47' W 009°08'0 1.1
2017-Nov-19 08:00N 37°47' W 009°07'2 3.0
2017-Nov-19 07:30N 37°48' W 009°08'1 2.9
2017-Nov-19 07:00N 37°50' W 009°08'2 3.4
2017-Nov-19 06:31N 37°51' W 009°09'1 1.1
2017-Nov-19 06:01N 37°52' W 009°10'1 2.6
2017-Nov-19 05:30N 37°52' W 009°11'0 0.3
2017-Nov-19 05:00N 37°52' W 009°11'0 0.2
2017-Nov-19 04:29N 37°52' W 009°11'0 0.2
2017-Nov-19 03:58N 37°52' W 009°11'0 0.1
2017-Nov-19 02:08N 37°52' W 009°11'0 0.1
2017-Nov-19 01:06N 37°52' W 009°11'0 0.1
2017-Nov-19 01:00N 37°52' W 009°11'1 2.5
2017-Nov-19 00:31N 37°53' W 009°12'1 1.9
2017-Nov-19 00:00N 37°54' W 009°13'1 2.1
2017-Nov-18 23:30N 37°55' W 009°13'1 2.2
2017-Nov-18 23:01N 37°56' W 009°13'1 1.2
2017-Nov-18 22:30N 37°56' W 009°13'0 0.4
2017-Nov-18 22:01N 37°56' W 009°14'1 2.3
2017-Nov-18 21:30N 37°55' W 009°14'1 2.9
2017-Nov-18 21:00N 37°54' W 009°14'1 2.9
2017-Nov-18 20:30N 37°52' W 009°14'2 3.0
2017-Nov-18 20:01N 37°51' W 009°14'2 3.0
2017-Nov-18 19:30N 37°49' W 009°14'2 3.9
2017-Nov-18 19:01N 37°48' W 009°15'6 6.1
2017-Nov-18 18:02N 37°51' W 009°09'0 1.5
2017-Nov-18 18:00N 37°51' W 009°09'1 1.5
2017-Nov-18 17:30N 37°50' W 009°09'1 2.9
2017-Nov-18 17:00N 37°49' W 009°08'2 2.8
2017-Nov-18 16:25N 37°47' W 009°08'1 1.7
2017-Nov-18 16:01N 37°47' W 009°07'1 2.8
2017-Nov-18 15:30N 37°48' W 009°08'1 2.7
2017-Nov-18 15:00N 37°49' W 009°08'1 2.9
2017-Nov-18 14:30N 37°51' W 009°09'1 1.7
2017-Nov-18 14:00N 37°52' W 009°09'1 2.5
2017-Nov-18 13:30N 37°50' W 009°09'1 2.7
2017-Nov-18 13:00N 37°49' W 009°08'2 2.9
2017-Nov-18 12:14N 37°47' W 009°08'1 3.1
2017-Nov-18 12:00N 37°46' W 009°07'2 2.9
2017-Nov-18 11:22N 37°48' W 009°08'1 2.9
2017-Nov-18 11:01N 37°49' W 009°08'1 2.9
2017-Nov-18 10:31N 37°50' W 009°08'2 3.0
2017-Nov-18 10:01N 37°52' W 009°09'1 1.5
2017-Nov-18 09:22N 37°51' W 009°09'1 2.9
2017-Nov-18 08:58N 37°50' W 009°08'1 0.7
2017-Nov-18 07:09N 37°49' W 009°08'0 2.7
2017-Nov-18 07:00N 37°49' W 009°08'2 3.1
2017-Nov-18 06:29N 37°50' W 009°09'3 5.8
2017-Nov-18 06:00N 37°48' W 009°10'4 1.5
2017-Nov-18 03:30N 37°48' W 009°15'3 2.9
2017-Nov-18 02:30N 37°51' W 009°14'1 2.0
2017-Nov-18 01:59N 37°52' W 009°13'2 2.3
2017-Nov-18 01:07N 37°50' W 009°14'1 3.2
2017-Nov-18 00:56N 37°49' W 009°14'1 3.1
2017-Nov-18 00:30N 37°48' W 009°14'2 3.0
2017-Nov-18 00:00N 37°47' W 009°14'4 3.3
2017-Nov-17 22:41N 37°42' W 009°12'1 1.9
2017-Nov-17 22:21N 37°43' W 009°13'0 0.8
2017-Nov-17 22:00N 37°43' W 009°13'2 3.1
2017-Nov-17 21:31N 37°45' W 009°13'2 3.1
2017-Nov-17 21:00N 37°46' W 009°14'1 3.0
2017-Nov-17 20:30N 37°48' W 009°14'2 3.1
2017-Nov-17 20:00N 37°49' W 009°14'1 3.0
2017-Nov-17 19:31N 37°51' W 009°14'2 3.9
2017-Nov-17 19:00N 37°53' W 009°13'2 4.5
2017-Nov-17 18:31N 37°52' W 009°10'1 2.2
2017-Nov-17 18:00N 37°52' W 009°09'1 2.7
2017-Nov-17 17:30N 37°50' W 009°09'1 2.9
2017-Nov-17 17:00N 37°49' W 009°08'1 0.7
2017-Nov-17 15:40N 37°48' W 009°08'0 2.8
2017-Nov-17 15:30N 37°49' W 009°08'1 2.8
2017-Nov-17 15:00N 37°50' W 009°08'1 2.8
2017-Nov-17 14:30N 37°51' W 009°09'1 1.5
2017-Nov-17 14:00N 37°52' W 009°09'1 2.8
2017-Nov-17 13:31N 37°51' W 009°09'1 2.9
2017-Nov-17 13:00N 37°49' W 009°08'2 3.0
2017-Nov-17 12:30N 37°48' W 009°08'1 2.7
2017-Nov-17 11:59N 37°46' W 009°07'2 3.0
2017-Nov-17 11:23N 37°48' W 009°08'1 3.0
2017-Nov-17 11:00N 37°49' W 009°08'2 3.2
2017-Nov-17 10:30N 37°51' W 009°09'1 1.4
2017-Nov-17 09:59N 37°51' W 009°09'1 2.7
2017-Nov-17 09:30N 37°50' W 009°08'1 2.9
2017-Nov-17 09:00N 37°49' W 009°08'1 0.5
2017-Nov-17 07:30N 37°48' W 009°08'2 2.9
2017-Nov-17 06:58N 37°50' W 009°08'2 3.6
2017-Nov-17 06:30N 37°51' W 009°09'2 4.7
2017-Nov-17 06:01N 37°52' W 009°06'4 7.2
2017-Nov-17 05:31N 37°53' W 009°02'4 7.2
2017-Nov-17 05:00N 37°55' W 008°57'4 7.3
2017-Nov-17 04:30N 37°56' W 008°53'1 2.8
2017-Nov-17 04:00N 37°57' W 008°52'0 0.0
2017-Nov-17 03:31N 37°57' W 008°52'0 0.0
2017-Nov-17 03:00N 37°57' W 008°52'0 0.0
2017-Nov-17 02:30N 37°57' W 008°52'0 0.0
2017-Nov-17 02:00N 37°57' W 008°52'0 0.0
2017-Nov-17 01:30N 37°57' W 008°52'0 0.0
2017-Nov-17 01:00N 37°57' W 008°52'0 0.0
2017-Nov-17 00:31N 37°57' W 008°52'0 0.0
2017-Nov-17 00:00N 37°57' W 008°52'0 0.0
2017-Nov-16 23:30N 37°57' W 008°52'0 0.0
2017-Nov-16 23:00N 37°57' W 008°52'0 0.0
2017-Nov-16 22:31N 37°57' W 008°52'0 0.0
2017-Nov-16 22:00N 37°57' W 008°52'0 0.0
2017-Nov-16 21:30N 37°57' W 008°52'0 0.0
2017-Nov-16 21:00N 37°57' W 008°52'0 0.0
2017-Nov-16 20:30N 37°57' W 008°52'0 0.0
2017-Nov-16 20:01N 37°57' W 008°52'0 0.0
2017-Nov-16 19:30N 37°57' W 008°52'3 7.0
2017-Nov-16 19:00N 37°55' W 008°55'4 8.4
2017-Nov-16 18:31N 37°53' W 009°00'4 8.5
2017-Nov-16 18:00N 37°51' W 009°05'3 6.1
2017-Nov-16 17:30N 37°49' W 009°08'1 1.8
2017-Nov-16 17:00N 37°48' W 009°08'1 2.8
2017-Nov-16 16:28N 37°47' W 009°08'1 3.1
2017-Nov-16 16:00N 37°45' W 009°08'1 1.0
2017-Nov-16 15:31N 37°45' W 009°07'2 3.0
2017-Nov-16 14:49N 37°47' W 009°07'1 2.9
2017-Nov-16 14:30N 37°48' W 009°08'1 2.0
2017-Nov-16 14:01N 37°49' W 009°08'0 0.1
2017-Nov-16 10:46N 37°49' W 009°08'0 1.5
2017-Nov-16 10:30N 37°49' W 009°08'1 1.2
2017-Nov-16 09:59N 37°49' W 009°08'0 0.1
2017-Nov-16 07:19N 37°48' W 009°08'1 2.9
2017-Nov-16 07:00N 37°49' W 009°08'1 1.6
2017-Nov-16 06:12N 37°51' W 009°08'1 2.7
2017-Nov-16 06:00N 37°51' W 009°08'2 3.0
2017-Nov-16 05:30N 37°52' W 009°09'1 3.0
2017-Nov-16 05:00N 37°54' W 009°09'0 0.7
2017-Nov-16 04:26N 37°54' W 009°10'0 0.9
2017-Nov-16 04:00N 37°54' W 009°10'0 0.8
2017-Nov-16 03:30N 37°53' W 009°11'0 0.6
2017-Nov-16 03:01N 37°53' W 009°11'0 0.5
2017-Nov-16 02:30N 37°53' W 009°11'0 0.5
2017-Nov-16 02:00N 37°53' W 009°11'0 0.4
2017-Nov-16 01:22N 37°52' W 009°11'0 0.3
2017-Nov-16 00:56N 37°52' W 009°11'0 0.2
2017-Nov-16 00:12N 37°52' W 009°11'0 0.2
2017-Nov-15 23:57N 37°52' W 009°11'1 1.9
2017-Nov-15 23:30N 37°52' W 009°12'3 2.2
2017-Nov-15 22:21N 37°50' W 009°14'2 3.0
2017-Nov-15 21:50N 37°48' W 009°15'1 3.0
2017-Nov-15 21:25N 37°47' W 009°15'6 1.7
2017-Nov-15 18:06N 37°49' W 009°08'0 1.2
2017-Nov-15 18:00N 37°49' W 009°08'0 0.1
2017-Nov-15 14:52N 37°49' W 009°08'1 2.9
2017-Nov-15 14:30N 37°50' W 009°08'1 1.3
2017-Nov-15 14:00N 37°50' W 009°08'1 2.9
2017-Nov-15 13:30N 37°48' W 009°08'2 2.9
2017-Nov-15 12:46N 37°46' W 009°08'1 0.7
2017-Nov-15 11:33N 37°47' W 009°07'1 3.0
2017-Nov-15 11:04N 37°48' W 009°08'0 3.0
2017-Nov-15 10:55N 37°49' W 009°08'5 5.9
2017-Nov-15 10:07N 37°52' W 009°03'1 8.8
2017-Nov-15 09:59N 37°52' W 009°02'4 8.8
2017-Nov-15 09:30N 37°54' W 008°57'4 9.0
2017-Nov-15 09:01N 37°57' W 008°53'1 1.1
2017-Nov-15 08:31N 37°57' W 008°52'0 0.0
2017-Nov-15 08:00N 37°57' W 008°52'0 0.0
2017-Nov-15 07:31N 37°57' W 008°52'0 0.0
2017-Nov-15 07:00N 37°57' W 008°52'0 0.0
2017-Nov-15 06:30N 37°57' W 008°52'2 4.2
2017-Nov-15 06:00N 37°56' W 008°54'4 7.8
2017-Nov-15 05:30N 37°55' W 008°59'4 7.8
2017-Nov-15 05:01N 37°55' W 009°04'4 8.2
2017-Nov-15 04:30N 37°54' W 009°09'3 6.7
2017-Nov-15 04:00N 37°54' W 009°13'5 2.8
2017-Nov-15 02:15N 37°49' W 009°15'1 2.3
2017-Nov-15 01:47N 37°48' W 009°15'3 2.7
2017-Nov-15 00:29N 37°51' W 009°15'1 3.0
2017-Nov-15 00:00N 37°53' W 009°14'1 3.0
2017-Nov-14 23:31N 37°54' W 009°14'2 3.0
2017-Nov-14 23:00N 37°56' W 009°14'1 1.4
2017-Nov-14 22:22N 37°56' W 009°14'1 2.6
2017-Nov-14 22:01N 37°56' W 009°14'2 3.2
2017-Nov-14 21:30N 37°54' W 009°14'2 3.1
2017-Nov-14 20:59N 37°52' W 009°14'13 3.4
2017-Nov-14 17:15N 37°53' W 008°58'2 8.8
2017-Nov-14 17:00N 37°55' W 008°56'4 7.6
2017-Nov-14 16:30N 37°57' W 008°52'0 0.1
2017-Nov-14 16:00N 37°57' W 008°52'0 0.0
2017-Nov-14 15:31N 37°57' W 008°52'0 0.0
2017-Nov-14 15:00N 37°57' W 008°52'0 0.0
2017-Nov-14 14:30N 37°57' W 008°52'0 0.0
2017-Nov-14 14:00N 37°57' W 008°52'3 6.0
2017-Nov-14 13:31N 37°55' W 008°55'4 7.4
2017-Nov-14 13:01N 37°54' W 008°60'4 7.2
2017-Nov-14 12:31N 37°52' W 009°04'4 7.3
2017-Nov-14 12:00N 37°51' W 009°08'1 1.6
2017-Nov-14 11:30N 37°50' W 009°08'1 2.9
2017-Nov-14 11:00N 37°49' W 009°08'0 0.1
2017-Nov-14 08:12N 37°49' W 009°08'1 3.0
2017-Nov-14 08:00N 37°49' W 009°08'1 3.0
2017-Nov-14 07:30N 37°51' W 009°08'1 3.0
2017-Nov-14 07:00N 37°52' W 009°09'2 3.1
2017-Nov-14 06:30N 37°54' W 009°09'1 1.8
2017-Nov-14 06:00N 37°53' W 009°10'1 2.6
2017-Nov-14 05:31N 37°52' W 009°10'1 2.5
2017-Nov-14 05:01N 37°51' W 009°11'0 0.5
2017-Nov-14 04:29N 37°51' W 009°11'0 0.5
2017-Nov-14 03:54N 37°51' W 009°11'1 0.5
2017-Nov-14 02:44N 37°51' W 009°12'1 2.6
2017-Nov-14 02:29N 37°50' W 009°13'2 3.3
2017-Nov-14 01:57N 37°49' W 009°14'1 1.0
2017-Nov-14 00:54N 37°50' W 009°15'1 3.1
2017-Nov-14 00:31N 37°51' W 009°15'2 3.0
2017-Nov-13 23:56N 37°52' W 009°14'1 3.1
2017-Nov-13 23:29N 37°54' W 009°14'2 3.7
2017-Nov-13 22:49N 37°56' W 009°14'1 0.7
2017-Nov-13 22:00N 37°56' W 009°14'5 0.2
2017-Nov-13 02:00N 38°00' W 009°12'2 4.0
2017-Nov-13 01:28N 38°01' W 009°09'3 7.5
2017-Nov-13 01:00N 37°60' W 009°05'4 7.6
2017-Nov-13 00:31N 37°59' W 009°01'4 7.4
2017-Nov-13 00:00N 37°57' W 008°57'3 6.7
2017-Nov-12 23:30N 37°57' W 008°52'0 0.9
2017-Nov-12 23:00N 37°57' W 008°52'0 0.0
2017-Nov-12 22:30N 37°57' W 008°52'0 0.0
2017-Nov-12 22:00N 37°57' W 008°52'0 0.0
2017-Nov-12 21:30N 37°57' W 008°52'0 0.0
2017-Nov-12 21:01N 37°57' W 008°52'0 0.0
2017-Nov-12 20:30N 37°57' W 008°52'0 0.0
2017-Nov-12 20:00N 37°57' W 008°52'0 0.0
2017-Nov-12 19:31N 37°57' W 008°52'0 0.0
2017-Nov-12 19:00N 37°57' W 008°52'3 5.5
2017-Nov-12 18:30N 37°55' W 008°55'4 8.1
2017-Nov-12 18:00N 37°53' W 008°59'4 8.2
2017-Nov-12 17:31N 37°51' W 009°03'4 7.6
2017-Nov-12 17:00N 37°49' W 009°08'0 1.0
2017-Nov-12 16:30N 37°48' W 009°08'3 0.8
2017-Nov-12 12:51N 37°48' W 009°11'1 3.9
2017-Nov-12 12:28N 37°49' W 009°11'0 0.9
2017-Nov-12 12:01N 37°50' W 009°11'1 2.4
2017-Nov-12 11:30N 37°49' W 009°12'1 0.1
2017-Nov-12 07:21N 37°48' W 009°11'1 3.2
2017-Nov-12 07:00N 37°50' W 009°11'1 1.1
2017-Nov-12 06:26N 37°50' W 009°11'1 1.8
2017-Nov-12 06:00N 37°50' W 009°12'0 0.8
2017-Nov-12 05:29N 37°50' W 009°12'3 1.8
2017-Nov-12 03:52N 37°53' W 009°14'1 3.1
2017-Nov-12 03:30N 37°54' W 009°14'2 3.1
2017-Nov-12 02:55N 37°56' W 009°14'1 3.0
2017-Nov-12 02:30N 37°57' W 009°14'2 3.6
2017-Nov-12 02:00N 37°59' W 009°13'1 1.1
2017-Nov-12 01:30N 37°58' W 009°14'2 3.0
2017-Nov-12 00:51N 37°56' W 009°14'1 3.0
2017-Nov-12 00:22N 37°55' W 009°14'1 2.9
2017-Nov-11 23:59N 37°54' W 009°14'1 2.8
2017-Nov-11 23:30N 37°53' W 009°14'1 1.1
2017-Nov-11 22:25N 37°51' W 009°14'1 3.1
2017-Nov-11 22:00N 37°53' W 009°14'5 3.1
2017-Nov-11 20:30N 37°57' W 009°14'1 3.1
2017-Nov-11 20:00N 37°59' W 009°13'1 2.9
2017-Nov-11 19:30N 38°00' W 009°12'1 2.3
2017-Nov-11 19:00N 37°60' W 009°11'4 7.7
2017-Nov-11 18:30N 37°56' W 009°10'4 7.8
2017-Nov-11 18:00N 37°52' W 009°09'1 1.1
2017-Nov-11 17:30N 37°52' W 009°09'1 2.6
2017-Nov-11 17:00N 37°51' W 009°09'1 2.7
2017-Nov-11 16:30N 37°50' W 009°10'1 2.5
2017-Nov-11 16:00N 37°48' W 009°11'1 2.7
2017-Nov-11 15:29N 37°47' W 009°11'3 2.7
2017-Nov-11 14:29N 37°44' W 009°11'2 3.5
2017-Nov-11 13:59N 37°43' W 009°11'4 2.9
2017-Nov-11 12:43N 37°46' W 009°11'1 3.0
2017-Nov-11 12:29N 37°47' W 009°11'1 3.0
2017-Nov-11 12:00N 37°48' W 009°12'1 1.6
2017-Nov-11 11:31N 37°49' W 009°12'1 1.3
2017-Nov-11 11:00N 37°48' W 009°12'1 2.9
2017-Nov-11 10:31N 37°47' W 009°12'4 2.7
2017-Nov-11 08:54N 37°43' W 009°10'1 2.8
2017-Nov-11 08:30N 37°44' W 009°10'4 2.9
2017-Nov-11 07:05N 37°48' W 009°11'0 2.6
2017-Nov-11 06:59N 37°48' W 009°11'1 1.8
2017-Nov-11 06:30N 37°49' W 009°12'3 6.0
2017-Nov-11 06:00N 37°46' W 009°14'1 1.6
2017-Nov-11 05:18N 37°47' W 009°14'1 3.0
2017-Nov-11 05:00N 37°48' W 009°14'2 3.1
2017-Nov-11 04:30N 37°49' W 009°14'2 3.2
2017-Nov-11 03:59N 37°51' W 009°14'2 3.2
2017-Nov-11 03:31N 37°53' W 009°14'2 3.0
2017-Nov-11 03:00N 37°54' W 009°14'1 1.2
2017-Nov-11 02:20N 37°53' W 009°14'0 0.2
2017-Nov-11 02:00N 37°53' W 009°14'2 3.1
2017-Nov-11 01:29N 37°55' W 009°14'2 3.1
2017-Nov-11 00:44N 37°57' W 009°13'1 3.2
2017-Nov-11 00:31N 37°58' W 009°13'2 3.2
2017-Nov-11 00:00N 37°60' W 009°12'2 3.2
2017-Nov-10 23:30N 38°01' W 009°12'2 3.2
2017-Nov-10 23:00N 38°02' W 009°10'2 3.2
2017-Nov-10 22:31N 38°04' W 009°10'1 1.0
2017-Nov-10 21:59N 38°03' W 009°10'1 3.0
2017-Nov-10 21:31N 38°02' W 009°11'2 3.0
2017-Nov-10 21:00N 38°01' W 009°12'2 3.0
2017-Nov-10 20:30N 37°60' W 009°13'1 3.0
2017-Nov-10 20:00N 37°58' W 009°13'2 3.0
2017-Nov-10 19:31N 37°57' W 009°14'2 3.2
2017-Nov-10 19:01N 37°55' W 009°14'3 6.0
2017-Nov-10 18:28N 37°52' W 009°12'2 5.0
2017-Nov-10 18:00N 37°51' W 009°09'1 1.4
2017-Nov-10 17:31N 37°51' W 009°09'1 2.8
2017-Nov-10 17:00N 37°49' W 009°08'1 2.6
2017-Nov-10 16:30N 37°48' W 009°08'2 2.7
2017-Nov-10 15:39N 37°46' W 009°09'0 2.8
2017-Nov-10 15:30N 37°45' W 009°09'3 1.5
2017-Nov-10 13:24N 37°47' W 009°12'1 2.9
2017-Nov-10 13:00N 37°48' W 009°12'1 2.0
2017-Nov-10 12:30N 37°49' W 009°12'0 0.7
2017-Nov-10 11:58N 37°49' W 009°12'1 1.6
2017-Nov-10 11:30N 37°48' W 009°12'2 2.8
2017-Nov-10 10:52N 37°47' W 009°11'3 0.9
2017-Nov-10 07:14N 37°49' W 009°08'1 2.7
2017-Nov-10 07:00N 37°49' W 009°08'1 1.9
2017-Nov-10 06:30N 37°50' W 009°08'3 5.1
2017-Nov-10 06:00N 37°51' W 009°05'3 6.4
2017-Nov-10 05:28N 37°52' W 009°01'3 7.3
2017-Nov-10 05:00N 37°54' W 008°58'4 7.6
2017-Nov-10 04:30N 37°56' W 008°54'2 3.1
2017-Nov-10 04:00N 37°57' W 008°52'0 0.0
2017-Nov-10 03:30N 37°57' W 008°52'0 0.0
2017-Nov-10 03:00N 37°57' W 008°52'0 0.0
2017-Nov-10 02:30N 37°57' W 008°52'0 0.0
2017-Nov-10 02:00N 37°57' W 008°52'0 0.0
2017-Nov-10 01:30N 37°57' W 008°52'0 0.0
2017-Nov-10 01:00N 37°57' W 008°52'0 0.0
2017-Nov-10 00:30N 37°57' W 008°52'0 0.0
2017-Nov-10 00:00N 37°57' W 008°52'0 0.0
2017-Nov-09 23:30N 37°57' W 008°52'  

Dump ship's entire track history